createdAt,value
2022-12-16T00:00:21.146Z,26.40
2022-12-16T00:01:21.079Z,34.00
2022-12-16T00:02:21.104Z,30.30
2022-12-16T00:03:21.168Z,31.50
2022-12-16T00:04:21.058Z,29.90
2022-12-16T00:05:21.037Z,31.60
2022-12-16T00:06:21.041Z,29.90
2022-12-16T00:07:21.020Z,29.00
2022-12-16T00:08:21.017Z,29.30
2022-12-16T00:09:20.999Z,30.30
2022-12-16T00:10:20.981Z,30.20
2022-12-16T00:11:20.967Z,29.10
2022-12-16T00:12:20.959Z,29.60
2022-12-16T00:13:20.949Z,28.40
2022-12-16T00:14:20.930Z,28.90
2022-12-16T00:15:20.927Z,33.20
2022-12-16T00:16:20.961Z,33.80
2022-12-16T00:17:20.898Z,34.30
2022-12-16T00:18:20.899Z,33.10
2022-12-16T00:19:20.883Z,34.20
2022-12-16T00:20:20.859Z,33.10
2022-12-16T00:21:20.857Z,32.60
2022-12-16T00:22:20.839Z,31.60
2022-12-16T00:23:20.848Z,31.20
2022-12-16T00:24:20.817Z,31.20
2022-12-16T00:25:20.799Z,33.80
2022-12-16T00:26:20.788Z,29.70
2022-12-16T00:27:20.758Z,31.50
2022-12-16T00:28:20.789Z,33.30
2022-12-16T00:29:20.733Z,35.50
2022-12-16T00:30:20.729Z,29.20
2022-12-16T00:31:20.786Z,31.90
2022-12-16T00:32:20.717Z,33.80
2022-12-16T00:33:20.720Z,33.80
2022-12-16T00:34:20.814Z,34.70
2022-12-16T00:35:20.668Z,35.10
2022-12-16T00:36:20.678Z,33.30
2022-12-16T00:37:20.648Z,35.40
2022-12-16T00:38:20.627Z,32.20
2022-12-16T00:39:20.630Z,33.00
2022-12-16T00:40:20.618Z,35.00
2022-12-16T00:41:20.600Z,36.70
2022-12-16T00:42:20.589Z,36.00
2022-12-16T00:43:20.640Z,34.00
2022-12-16T00:44:20.577Z,39.50
2022-12-16T00:45:20.541Z,37.30
2022-12-16T00:46:20.539Z,41.80
2022-12-16T00:47:20.521Z,39.00
2022-12-16T00:48:20.518Z,35.30
2022-12-16T00:49:20.507Z,36.20
2022-12-16T00:50:20.489Z,33.20
2022-12-16T00:51:20.471Z,34.40
2022-12-16T00:52:20.456Z,37.60
2022-12-16T00:53:20.458Z,33.90
2022-12-16T00:54:20.439Z,33.00
2022-12-16T00:55:20.409Z,35.00
2022-12-16T00:56:20.397Z,36.80
2022-12-16T00:57:20.514Z,36.30
2022-12-16T00:58:20.394Z,38.10
2022-12-16T00:59:20.369Z,40.70
2022-12-16T01:00:20.354Z,37.50
2022-12-16T01:01:20.644Z,42.80
2022-12-16T01:02:20.496Z,37.90
2022-12-16T01:03:22.051Z,38.20
2022-12-16T01:04:20.319Z,39.10
2022-12-16T01:05:20.286Z,38.30
2022-12-16T01:06:20.267Z,46.30
2022-12-16T01:07:20.306Z,44.10
2022-12-16T01:08:20.257Z,42.50
2022-12-16T01:09:20.249Z,44.70
2022-12-16T01:10:20.248Z,37.80
2022-12-16T01:11:20.254Z,39.10
2022-12-16T01:12:20.203Z,41.90
2022-12-16T01:13:20.187Z,37.90
2022-12-16T01:14:20.190Z,38.60
2022-12-16T01:15:20.189Z,41.60
2022-12-16T01:16:20.173Z,41.80
2022-12-16T01:17:27.646Z,34.50
2022-12-16T01:18:20.117Z,41.50
2022-12-16T01:19:28.790Z,40.00
2022-12-16T01:20:20.113Z,40.30
2022-12-16T01:21:27.637Z,40.10
2022-12-16T01:22:20.081Z,46.50
2022-12-16T01:23:20.078Z,43.40
2022-12-16T01:24:20.078Z,45.80
2022-12-16T01:25:20.066Z,45.50
2022-12-16T01:26:20.057Z,43.50
2022-12-16T01:27:20.028Z,46.40
2022-12-16T01:28:20.030Z,39.60
2022-12-16T01:29:19.996Z,39.00
2022-12-16T01:30:20.000Z,45.70
2022-12-16T01:31:19.995Z,43.10
2022-12-16T01:32:19.964Z,42.80
2022-12-16T01:33:19.946Z,41.90
2022-12-16T01:34:19.956Z,41.70
2022-12-16T01:35:51.504Z,41.30
2022-12-16T01:36:20.925Z,43.10
2022-12-16T01:37:19.907Z,43.20
2022-12-16T01:38:19.887Z,43.70
2022-12-16T01:39:19.887Z,45.30
2022-12-16T01:40:19.877Z,42.00
2022-12-16T01:41:19.863Z,44.20
2022-12-16T01:42:19.856Z,44.00
2022-12-16T01:43:19.856Z,43.40
2022-12-16T01:44:19.856Z,47.70
2022-12-16T01:45:19.806Z,45.60
2022-12-16T01:46:19.856Z,46.80
2022-12-16T01:47:19.780Z,42.90
2022-12-16T01:48:19.767Z,43.50
2022-12-16T01:49:19.774Z,40.00
2022-12-16T01:50:19.745Z,43.40
2022-12-16T01:51:19.746Z,45.40
2022-12-16T01:52:19.745Z,45.00
2022-12-16T01:53:19.734Z,43.80
2022-12-16T01:54:19.738Z,43.90
2022-12-16T01:55:19.704Z,42.10
2022-12-16T01:56:19.663Z,40.90
2022-12-16T01:57:19.649Z,43.00
2022-12-16T01:58:19.657Z,42.80
2022-12-16T01:59:19.627Z,43.20
2022-12-16T02:00:19.637Z,42.80
2022-12-16T02:01:19.736Z,44.10
2022-12-16T02:02:19.685Z,42.10
2022-12-16T02:03:19.600Z,40.40
2022-12-16T02:04:19.569Z,47.10
2022-12-16T02:05:19.580Z,41.00
2022-12-16T02:06:19.547Z,40.80
2022-12-16T02:07:19.529Z,40.10
2022-12-16T02:08:19.554Z,41.50
2022-12-16T02:09:19.498Z,43.10
2022-12-16T02:10:19.508Z,43.70
2022-12-16T02:11:19.644Z,44.40
2022-12-16T02:12:19.524Z,46.70
2022-12-16T02:13:19.467Z,41.00
2022-12-16T02:14:19.447Z,42.20
2022-12-16T02:15:19.428Z,40.30
2022-12-16T02:16:19.532Z,43.40
2022-12-16T02:17:19.489Z,40.30
2022-12-16T02:18:19.416Z,42.00
2022-12-16T02:19:19.376Z,42.90
2022-12-16T02:20:19.377Z,44.50
2022-12-16T02:21:19.367Z,46.80
2022-12-16T02:22:19.350Z,48.40
2022-12-16T02:23:19.336Z,50.00
2022-12-16T02:24:19.325Z,48.90
2022-12-16T02:25:19.307Z,49.30
2022-12-16T02:26:19.297Z,49.20
2022-12-16T02:27:19.288Z,47.00
2022-12-16T02:28:19.298Z,47.90
2022-12-16T02:29:19.257Z,46.60
2022-12-16T02:30:19.270Z,47.90
2022-12-16T02:31:19.297Z,45.00
2022-12-16T02:32:19.227Z,48.90
2022-12-16T02:33:19.209Z,46.40
2022-12-16T02:34:19.193Z,46.10
2022-12-16T02:35:19.180Z,45.60
2022-12-16T02:36:19.176Z,42.70
2022-12-16T02:37:19.160Z,47.50
2022-12-16T02:38:19.139Z,43.10
2022-12-16T02:39:19.131Z,42.50
2022-12-16T02:40:19.128Z,43.70
2022-12-16T02:41:19.108Z,42.40
2022-12-16T02:42:19.099Z,43.40
2022-12-16T02:43:19.100Z,40.70
2022-12-16T02:44:19.066Z,42.30
2022-12-16T02:45:19.077Z,43.10
2022-12-16T02:46:19.104Z,44.60
2022-12-16T02:47:19.040Z,43.90
2022-12-16T02:48:19.041Z,47.90
2022-12-16T02:49:19.008Z,40.20
2022-12-16T02:50:19.009Z,40.40
2022-12-16T02:51:18.977Z,41.70
2022-12-16T02:52:18.970Z,43.30
2022-12-16T02:53:18.978Z,39.40
2022-12-16T02:54:18.975Z,42.90
2022-12-16T02:55:18.938Z,40.20
2022-12-16T02:56:18.932Z,38.20
2022-12-16T02:57:18.929Z,42.60
2022-12-16T02:58:18.897Z,42.70
2022-12-16T02:59:18.880Z,42.90
2022-12-16T03:00:18.877Z,43.80
2022-12-16T03:01:18.960Z,41.60
2022-12-16T03:02:18.999Z,39.90
2022-12-16T03:03:18.891Z,44.20
2022-12-16T03:04:18.817Z,41.90
2022-12-16T03:05:18.816Z,37.80
2022-12-16T03:06:18.830Z,39.80
2022-12-16T03:07:18.804Z,41.00
2022-12-16T03:08:18.769Z,42.30
2022-12-16T03:09:18.759Z,43.90
2022-12-16T03:10:18.746Z,44.80
2022-12-16T03:11:18.758Z,49.00
2022-12-16T03:12:18.717Z,40.80
2022-12-16T03:13:18.709Z,42.50
2022-12-16T03:14:18.706Z,47.20
2022-12-16T03:15:18.691Z,44.30
2022-12-16T03:16:18.727Z,42.70
2022-12-16T03:17:18.687Z,42.60
2022-12-16T03:18:18.649Z,44.50
2022-12-16T03:19:18.661Z,46.70
2022-12-16T03:20:18.620Z,43.90
2022-12-16T03:21:18.627Z,46.10
2022-12-16T03:22:18.585Z,49.80
2022-12-16T03:23:18.581Z,47.90
2022-12-16T03:24:18.571Z,47.60
2022-12-16T03:25:18.558Z,46.40
2022-12-16T03:26:18.566Z,46.00
2022-12-16T03:27:18.538Z,47.00
2022-12-16T03:28:18.530Z,45.40
2022-12-16T03:29:18.526Z,50.30
2022-12-16T03:30:18.508Z,46.60
2022-12-16T03:31:18.561Z,48.80
2022-12-16T03:32:18.471Z,43.90
2022-12-16T03:33:18.468Z,48.10
2022-12-16T03:34:18.451Z,47.90
2022-12-16T03:35:18.443Z,44.60
2022-12-16T03:36:18.430Z,50.60
2022-12-16T03:37:18.419Z,50.50
2022-12-16T03:38:18.390Z,50.10
2022-12-16T03:39:18.402Z,50.10
2022-12-16T03:40:18.361Z,50.50
2022-12-16T03:41:18.376Z,49.90
2022-12-16T03:42:18.358Z,50.90
2022-12-16T03:43:18.329Z,51.60
2022-12-16T03:44:18.321Z,51.80
2022-12-16T03:45:18.340Z,50.30
2022-12-16T03:46:18.357Z,54.40
2022-12-16T03:47:23.328Z,52.40
2022-12-16T03:48:19.271Z,53.60
2022-12-16T03:49:18.270Z,52.10
2022-12-16T03:50:18.249Z,51.30
2022-12-16T04:03:42.154Z,48.30
2022-12-16T04:04:42.058Z,52.20
2022-12-16T04:05:42.063Z,48.10
2022-12-16T04:06:42.038Z,55.00
2022-12-16T04:07:42.029Z,55.50
2022-12-16T04:08:42.018Z,50.50
2022-12-16T04:09:42.007Z,55.50
2022-12-16T04:10:41.985Z,54.80
2022-12-16T04:11:41.985Z,50.20
2022-12-16T04:12:42.007Z,58.70
2022-12-16T04:13:41.947Z,54.10
2022-12-16T04:14:41.937Z,56.30
2022-12-16T04:15:42.003Z,49.30
2022-12-16T04:16:41.931Z,55.80
2022-12-16T04:17:41.918Z,54.00
2022-12-16T04:18:41.899Z,56.60
2022-12-16T04:19:41.876Z,54.60
2022-12-16T04:20:41.865Z,49.90
2022-12-16T04:21:41.873Z,47.90
2022-12-16T04:22:41.870Z,47.80
2022-12-16T04:23:41.826Z,54.70
2022-12-16T04:24:41.808Z,53.40
2022-12-16T04:25:41.806Z,51.40
2022-12-16T04:26:41.807Z,51.60
2022-12-16T04:27:41.778Z,45.90
2022-12-16T04:28:41.878Z,47.90
2022-12-16T04:29:41.768Z,49.50
2022-12-16T04:30:41.739Z,51.70
2022-12-16T04:31:41.809Z,49.10
2022-12-16T04:32:41.771Z,47.50
2022-12-16T04:33:41.707Z,52.10
2022-12-16T04:34:41.685Z,49.80
2022-12-16T04:35:41.667Z,52.00
2022-12-16T04:36:41.677Z,50.40
2022-12-16T04:37:41.679Z,51.50
2022-12-16T04:38:41.632Z,54.30
2022-12-16T04:39:41.629Z,51.60
2022-12-16T04:40:41.614Z,50.20
2022-12-16T04:41:41.608Z,51.70
2022-12-16T04:42:41.586Z,56.30
2022-12-16T04:43:41.587Z,53.40
2022-12-16T04:44:41.556Z,53.60
2022-12-16T04:45:41.559Z,56.50
2022-12-16T04:46:41.624Z,55.60
2022-12-16T04:47:41.548Z,54.50
2022-12-16T04:48:41.508Z,54.00
2022-12-16T04:49:41.508Z,52.20
2022-12-16T04:50:41.479Z,54.90
2022-12-16T04:51:41.488Z,54.20
2022-12-16T04:52:41.480Z,48.90
2022-12-16T04:53:41.458Z,50.00
2022-12-16T04:54:41.439Z,54.20
2022-12-16T04:55:41.418Z,52.50
2022-12-16T04:56:41.427Z,49.00
2022-12-16T04:57:41.422Z,58.30
2022-12-16T04:58:41.432Z,52.50
2022-12-16T04:59:41.377Z,60.40
2022-12-16T05:00:41.364Z,60.80
2022-12-16T05:01:41.474Z,52.50
2022-12-16T05:02:41.440Z,56.80
2022-12-16T05:03:41.396Z,58.10
2022-12-16T05:04:41.308Z,56.70
2022-12-16T05:05:41.307Z,58.50
2022-12-16T05:06:41.298Z,58.30
2022-12-16T05:07:41.285Z,57.50
2022-12-16T05:08:41.297Z,44.10
2022-12-16T05:09:41.258Z,57.20
2022-12-16T05:10:41.246Z,43.80
2022-12-16T05:11:41.237Z,51.90
2022-12-16T05:12:41.235Z,47.10
2022-12-16T05:13:41.200Z,46.80
2022-12-16T05:14:41.189Z,53.30
2022-12-16T05:15:41.229Z,49.80
2022-12-16T05:16:41.150Z,55.40
2022-12-16T05:17:41.207Z,43.50
2022-12-16T05:18:41.119Z,53.20
2022-12-16T05:19:41.127Z,55.30
2022-12-16T05:20:41.100Z,49.70
2022-12-16T05:21:41.108Z,50.80
2022-12-16T05:22:41.091Z,37.50
2022-12-16T05:23:41.101Z,48.90
2022-12-16T05:24:41.067Z,49.50
2022-12-16T05:25:41.051Z,51.80
2022-12-16T05:26:41.028Z,46.80
2022-12-16T05:27:41.041Z,47.70
2022-12-16T05:28:41.017Z,41.60
2022-12-16T05:29:40.999Z,48.10
2022-12-16T05:30:40.988Z,39.50
2022-12-16T05:31:41.031Z,46.00
2022-12-16T05:32:40.956Z,44.30
2022-12-16T05:33:40.947Z,40.30
2022-12-16T05:34:40.935Z,46.50
2022-12-16T05:35:40.917Z,42.10
2022-12-16T05:36:40.917Z,42.50
2022-12-16T05:37:40.921Z,42.20
2022-12-16T05:38:40.878Z,45.70
2022-12-16T05:39:40.878Z,47.90
2022-12-16T05:40:40.849Z,49.10
2022-12-16T05:41:40.849Z,46.40
2022-12-16T05:42:40.839Z,47.20
2022-12-16T05:43:40.827Z,49.10
2022-12-16T05:44:40.799Z,52.50
2022-12-16T05:45:40.888Z,50.70
2022-12-16T05:46:40.879Z,47.10
2022-12-16T05:47:40.787Z,50.00
2022-12-16T05:48:45.986Z,42.90
2022-12-16T05:49:41.749Z,46.00
2022-12-16T05:50:40.728Z,49.60
2022-12-16T05:51:40.719Z,52.10
2022-12-16T05:52:40.709Z,47.90
2022-12-16T05:53:40.708Z,48.00
2022-12-16T05:54:40.670Z,50.90
2022-12-16T05:55:40.669Z,50.40
2022-12-16T05:56:40.650Z,51.70
2022-12-16T05:57:40.648Z,42.40
2022-12-16T05:58:40.640Z,44.90
2022-12-16T05:59:40.626Z,40.50
2022-12-16T06:00:40.628Z,50.60
2022-12-16T06:01:40.709Z,46.30
2022-12-16T06:02:40.818Z,47.10
2022-12-16T06:03:40.690Z,41.20
2022-12-16T06:04:40.560Z,48.10
2022-12-16T06:05:40.538Z,50.70
2022-12-16T06:06:40.527Z,46.20
2022-12-16T06:07:40.520Z,50.80
2022-12-16T06:08:40.516Z,39.70
2022-12-16T06:09:40.500Z,47.80
2022-12-16T06:10:40.469Z,47.40
2022-12-16T06:11:40.470Z,47.10
2022-12-16T06:12:40.453Z,48.50
2022-12-16T06:13:49.130Z,42.50
2022-12-16T06:14:47.948Z,48.20
2022-12-16T06:15:40.420Z,52.00
2022-12-16T06:16:40.474Z,47.60
2022-12-16T06:17:47.902Z,46.30
2022-12-16T06:18:40.381Z,40.20
2022-12-16T06:19:40.363Z,50.90
2022-12-16T06:20:40.363Z,43.90
2022-12-16T06:21:40.349Z,37.60
2022-12-16T06:22:40.330Z,39.20
2022-12-16T06:23:40.339Z,43.80
2022-12-16T06:24:40.310Z,39.00
2022-12-16T06:25:40.313Z,42.70
2022-12-16T06:26:40.277Z,44.40
2022-12-16T06:27:40.281Z,43.30
2022-12-16T06:28:45.610Z,44.20
2022-12-16T06:29:41.273Z,40.70
2022-12-16T06:30:40.241Z,45.00
2022-12-16T06:31:40.284Z,43.60
2022-12-16T06:32:40.226Z,44.70
2022-12-16T06:33:40.210Z,47.90
2022-12-16T06:34:40.194Z,42.50
2022-12-16T06:35:40.205Z,43.70
2022-12-16T06:36:40.174Z,49.60
2022-12-16T06:37:40.150Z,46.80
2022-12-16T06:38:40.140Z,47.40
2022-12-16T06:39:40.131Z,50.70
2022-12-16T06:40:40.095Z,44.90
2022-12-16T06:41:40.101Z,45.00
2022-12-16T06:42:40.081Z,43.80
2022-12-16T06:43:40.107Z,45.30
2022-12-16T06:44:40.071Z,43.40
2022-12-16T06:45:40.060Z,42.50
2022-12-16T06:46:40.075Z,46.70
2022-12-16T06:47:40.018Z,47.90
2022-12-16T06:48:40.019Z,47.00
2022-12-16T06:49:39.993Z,44.80
2022-12-16T06:50:44.725Z,47.20
2022-12-16T06:51:40.971Z,47.10
2022-12-16T06:52:39.985Z,39.70
2022-12-16T06:53:39.941Z,43.10
2022-12-16T06:54:39.949Z,42.10
2022-12-16T06:55:39.920Z,45.90
2022-12-16T06:56:39.928Z,50.70
2022-12-16T06:57:39.910Z,54.80
2022-12-16T06:58:39.880Z,46.50
2022-12-16T06:59:39.870Z,45.10
2022-12-16T07:00:39.868Z,47.60
2022-12-16T07:01:39.989Z,52.20
2022-12-16T07:02:47.421Z,43.50
2022-12-16T07:03:48.531Z,45.50
2022-12-16T07:04:47.307Z,47.50
2022-12-16T07:05:47.296Z,43.30
2022-12-16T07:06:48.282Z,49.60
2022-12-16T07:07:47.281Z,40.60
2022-12-16T07:08:48.458Z,45.00
2022-12-16T07:09:47.237Z,41.90
2022-12-16T07:10:47.244Z,39.80
2022-12-16T07:11:48.221Z,40.20
2022-12-16T07:12:47.208Z,39.00
2022-12-16T07:13:47.209Z,35.30
2022-12-16T07:14:48.381Z,31.90
2022-12-16T07:15:39.663Z,33.90
2022-12-16T07:16:47.233Z,31.30
2022-12-16T07:17:39.648Z,32.10
2022-12-16T07:18:47.134Z,31.20
2022-12-16T07:19:48.333Z,35.10
2022-12-16T07:20:39.582Z,30.80
2022-12-16T07:21:47.113Z,34.80
2022-12-16T07:22:39.577Z,35.70
2022-12-16T07:23:39.633Z,32.80
2022-12-16T07:24:39.577Z,36.60
2022-12-16T07:25:39.563Z,29.90
2022-12-16T07:26:39.517Z,31.30
2022-12-16T07:27:39.516Z,29.40
2022-12-16T07:28:39.506Z,27.40
2022-12-16T07:29:39.509Z,28.80
2022-12-16T07:30:39.481Z,31.30
2022-12-16T07:31:39.549Z,25.10
2022-12-16T07:32:39.472Z,25.30
2022-12-16T07:33:39.435Z,26.20
2022-12-16T07:34:42.866Z,26.10
2022-12-16T07:35:40.430Z,27.90
2022-12-16T07:36:39.387Z,28.40
2022-12-16T07:37:39.385Z,32.40
2022-12-16T07:38:39.366Z,26.70
2022-12-16T07:39:39.417Z,27.40
2022-12-16T07:40:39.373Z,28.70
2022-12-16T07:41:39.437Z,27.90
2022-12-16T07:42:39.334Z,27.20
2022-12-16T07:43:39.308Z,26.70
2022-12-16T07:44:39.319Z,28.70
2022-12-16T07:45:44.905Z,27.30
2022-12-16T07:46:40.282Z,22.30
2022-12-16T07:47:39.256Z,29.30
2022-12-16T07:48:39.246Z,29.40
2022-12-16T07:49:39.235Z,25.40
2022-12-16T07:50:39.246Z,27.90
2022-12-16T07:51:39.207Z,23.90
2022-12-16T07:52:39.202Z,25.30
2022-12-16T07:53:39.539Z,22.00
2022-12-16T07:54:39.181Z,23.70
2022-12-16T07:55:39.178Z,26.30
2022-12-16T07:56:39.141Z,25.20
2022-12-16T07:57:39.128Z,26.30
2022-12-16T07:58:39.129Z,21.60
2022-12-16T07:59:39.107Z,20.60
2022-12-16T08:00:39.109Z,25.40
2022-12-16T08:01:39.166Z,26.30
2022-12-16T08:02:39.245Z,25.60
2022-12-16T08:03:39.103Z,21.30
2022-12-16T08:04:39.047Z,25.20
2022-12-16T08:05:39.040Z,23.30
2022-12-16T08:06:40.584Z,22.00
2022-12-16T08:07:39.008Z,22.30
2022-12-16T08:08:39.008Z,21.30
2022-12-16T08:09:38.980Z,22.80
2022-12-16T08:10:38.994Z,22.10
2022-12-16T08:11:38.954Z,22.40
2022-12-16T08:12:38.942Z,23.20
2022-12-16T08:13:39.635Z,21.30
2022-12-16T08:14:38.919Z,20.20
2022-12-16T08:15:38.919Z,21.70
2022-12-16T08:16:38.996Z,24.10
2022-12-16T08:17:38.879Z,19.50
2022-12-16T08:18:38.883Z,25.10
2022-12-16T08:19:38.859Z,18.80
2022-12-16T08:20:38.859Z,21.90
2022-12-16T08:21:38.829Z,17.80
2022-12-16T08:22:38.838Z,20.80
2022-12-16T08:23:38.801Z,20.80
2022-12-16T08:24:38.808Z,19.00
2022-12-16T08:25:38.790Z,19.80
2022-12-16T08:26:38.769Z,18.90
2022-12-16T08:27:38.766Z,16.10
2022-12-16T08:28:38.739Z,18.50
2022-12-16T08:29:46.056Z,21.80
2022-12-16T08:30:39.779Z,18.60
2022-12-16T08:31:38.729Z,20.30
2022-12-16T08:32:38.715Z,19.20
2022-12-16T08:33:38.729Z,15.60
2022-12-16T08:34:38.668Z,14.80
2022-12-16T08:35:38.659Z,17.90
2022-12-16T08:36:38.664Z,16.00
2022-12-16T08:37:38.639Z,14.20
2022-12-16T08:38:38.611Z,16.60
2022-12-16T08:39:38.599Z,15.00
2022-12-16T08:40:38.632Z,14.50
2022-12-16T08:41:38.584Z,17.80
2022-12-16T08:42:38.579Z,16.80
2022-12-16T08:43:38.560Z,15.20
2022-12-16T08:44:38.537Z,14.40
2022-12-16T08:45:38.605Z,15.50
2022-12-16T08:46:38.622Z,15.10
2022-12-16T08:47:38.509Z,12.30
2022-12-16T08:48:38.488Z,10.80
2022-12-16T08:49:38.480Z,12.90
2022-12-16T08:50:38.495Z,16.00
2022-12-16T08:51:38.486Z,13.40
2022-12-16T08:52:38.449Z,15.00
2022-12-16T08:53:38.428Z,13.30
2022-12-16T08:54:38.419Z,14.00
2022-12-16T08:55:38.400Z,11.30
2022-12-16T08:56:38.439Z,10.60
2022-12-16T08:57:38.379Z,12.90
2022-12-16T08:58:38.389Z,13.00
2022-12-16T08:59:38.384Z,12.50
2022-12-16T09:00:38.348Z,12.90
2022-12-16T09:01:38.597Z,12.60
2022-12-16T09:02:38.524Z,13.30
2022-12-16T09:03:38.635Z,12.80
2022-12-16T09:04:38.287Z,11.00
2022-12-16T09:05:38.282Z,10.60
2022-12-16T09:06:40.620Z,12.90
2022-12-16T09:07:38.248Z,13.40
2022-12-16T09:08:38.255Z,12.40
2022-12-16T09:09:38.249Z,10.90
2022-12-16T09:10:40.600Z,9.80
2022-12-16T09:11:38.218Z,10.00
2022-12-16T09:12:38.217Z,13.50
2022-12-16T09:13:38.227Z,14.50
2022-12-16T09:14:38.159Z,11.80
2022-12-16T09:15:38.194Z,11.30
2022-12-16T09:16:38.272Z,10.30
2022-12-16T09:17:38.137Z,11.90
2022-12-16T09:18:38.120Z,9.00
2022-12-16T09:19:38.089Z,9.00
2022-12-16T09:20:38.087Z,10.80
2022-12-16T09:21:38.113Z,9.10
2022-12-16T09:22:38.087Z,11.40
2022-12-16T09:23:38.048Z,10.60
2022-12-16T09:24:38.059Z,11.30
2022-12-16T09:25:38.029Z,10.90
2022-12-16T09:26:38.064Z,9.40
2022-12-16T09:27:38.009Z,10.50
2022-12-16T09:28:38.066Z,8.30
2022-12-16T09:29:41.965Z,8.50
2022-12-16T09:30:38.996Z,8.00
2022-12-16T09:31:38.081Z,9.90
2022-12-16T09:32:37.956Z,9.00
2022-12-16T09:33:37.920Z,9.60
2022-12-16T09:34:37.910Z,9.20
2022-12-16T09:35:37.913Z,8.50
2022-12-16T09:36:37.889Z,8.40
2022-12-16T09:37:37.870Z,9.10
2022-12-16T09:38:37.868Z,8.00
2022-12-16T09:39:37.867Z,12.60
2022-12-16T09:40:37.839Z,10.00
2022-12-16T09:41:42.909Z,12.50
2022-12-16T09:42:38.837Z,9.30
2022-12-16T09:43:37.807Z,10.30
2022-12-16T09:44:37.788Z,8.90
2022-12-16T09:45:37.793Z,11.40
2022-12-16T09:46:37.809Z,11.00
2022-12-16T09:47:37.775Z,12.20
2022-12-16T10:04:04.724Z,15.90
2022-12-16T10:05:04.589Z,12.40
2022-12-16T10:06:04.574Z,14.10
2022-12-16T10:07:04.576Z,12.80
2022-12-16T10:08:04.653Z,16.10
2022-12-16T10:09:04.547Z,11.70
2022-12-16T10:10:04.538Z,15.50
2022-12-16T10:11:04.532Z,14.40
2022-12-16T10:12:04.555Z,15.50
2022-12-16T10:13:04.505Z,12.60
2022-12-16T10:14:04.474Z,12.80
2022-12-16T10:15:04.465Z,14.10
2022-12-16T10:16:04.714Z,12.60
2022-12-16T10:17:04.465Z,13.10
2022-12-16T10:18:04.491Z,13.20
2022-12-16T10:19:04.434Z,16.60
2022-12-16T10:20:09.091Z,18.10
2022-12-16T10:21:05.422Z,15.80
2022-12-16T10:22:04.376Z,15.10
2022-12-16T10:23:04.383Z,13.70
2022-12-16T10:24:04.366Z,14.50
2022-12-16T10:25:04.358Z,16.60
2022-12-16T10:26:04.326Z,14.60
2022-12-16T10:27:04.328Z,15.40
2022-12-16T10:28:04.327Z,20.40
2022-12-16T10:29:04.303Z,16.60
2022-12-16T10:30:04.286Z,17.90
2022-12-16T10:31:04.341Z,15.60
2022-12-16T10:32:04.266Z,15.90
2022-12-16T10:33:04.285Z,16.20
2022-12-16T10:34:04.246Z,16.70
2022-12-16T10:35:04.226Z,17.70
2022-12-16T10:36:04.206Z,20.60
2022-12-16T10:37:09.145Z,21.00
2022-12-16T10:38:05.215Z,16.20
2022-12-16T10:39:04.175Z,18.30
2022-12-16T10:40:04.161Z,19.80
2022-12-16T10:41:04.153Z,20.00
2022-12-16T10:42:05.227Z,18.90
2022-12-16T10:43:04.135Z,17.90
2022-12-16T10:44:04.116Z,17.70
2022-12-16T10:45:04.085Z,18.90
2022-12-16T10:46:04.141Z,18.90
2022-12-16T10:47:04.075Z,18.60
2022-12-16T10:48:04.085Z,17.10
2022-12-16T10:49:04.118Z,19.80
2022-12-16T10:50:04.120Z,17.70
2022-12-16T10:51:04.017Z,17.10
2022-12-16T10:52:08.337Z,18.50
2022-12-16T10:53:05.014Z,17.50
2022-12-16T10:54:03.996Z,20.70
2022-12-16T10:55:03.985Z,17.30
2022-12-16T10:56:03.954Z,17.00
2022-12-16T10:57:03.949Z,17.90
2022-12-16T10:58:03.925Z,18.60
2022-12-16T10:59:03.931Z,19.50
2022-12-16T11:00:03.912Z,23.10
2022-12-16T11:01:03.885Z,17.90
2022-12-16T11:02:03.999Z,19.40
2022-12-16T11:03:04.108Z,17.70
2022-12-16T11:04:03.928Z,20.70
2022-12-16T11:05:03.855Z,20.00
2022-12-16T11:06:03.825Z,19.60
2022-12-16T11:07:03.837Z,16.40
2022-12-16T11:08:03.837Z,17.00
2022-12-16T11:09:03.816Z,18.00
2022-12-16T11:10:03.793Z,17.10
2022-12-16T11:11:03.766Z,17.10
2022-12-16T11:12:03.776Z,16.30
2022-12-16T11:13:03.775Z,17.80
2022-12-16T11:14:03.767Z,20.10
2022-12-16T11:15:28.132Z,18.40
2022-12-16T11:16:04.821Z,18.70
2022-12-16T11:17:03.696Z,21.90
2022-12-16T11:18:03.863Z,20.60
2022-12-16T11:19:04.456Z,19.80
2022-12-16T11:20:04.687Z,19.10
2022-12-16T11:21:06.880Z,21.30
2022-12-16T11:22:04.858Z,21.10
2022-12-16T11:23:03.617Z,25.00
2022-12-16T11:24:03.615Z,23.30
2022-12-16T11:25:03.597Z,20.20
2022-12-16T11:26:03.576Z,17.10
2022-12-16T11:27:03.599Z,18.70
2022-12-16T11:28:03.546Z,24.10
2022-12-16T11:29:03.554Z,20.70
2022-12-16T11:30:03.548Z,20.80
2022-12-16T11:31:03.576Z,19.20
2022-12-16T11:32:03.512Z,20.40
2022-12-16T11:33:03.506Z,20.40
2022-12-16T11:34:03.491Z,21.10
2022-12-16T11:35:03.467Z,20.20
2022-12-16T11:36:03.478Z,20.10
2022-12-16T11:37:03.462Z,19.90
2022-12-16T11:38:03.448Z,20.40
2022-12-16T11:39:03.439Z,19.20
2022-12-16T11:40:03.409Z,19.20
2022-12-16T11:41:03.409Z,18.10
2022-12-16T11:42:03.396Z,18.80
2022-12-16T11:43:10.506Z,20.60
2022-12-16T11:44:04.356Z,20.80
2022-12-16T11:45:03.433Z,19.30
2022-12-16T11:46:04.178Z,19.10
2022-12-16T11:47:03.392Z,18.60
2022-12-16T11:48:03.297Z,20.50
2022-12-16T11:49:03.312Z,18.90
2022-12-16T11:50:03.278Z,20.30
2022-12-16T11:51:03.337Z,21.50
2022-12-16T11:52:21.262Z,19.80
2022-12-16T11:53:04.257Z,21.30
2022-12-16T11:54:03.873Z,20.90
2022-12-16T11:55:03.605Z,20.50
2022-12-16T11:56:07.685Z,23.20
2022-12-16T11:57:05.152Z,20.80
2022-12-16T11:58:03.234Z,19.60
2022-12-16T11:59:03.175Z,22.80
2022-12-16T12:00:03.172Z,19.90
2022-12-16T12:01:03.168Z,19.70
2022-12-16T12:02:03.181Z,21.80
2022-12-16T12:03:03.209Z,20.30
2022-12-16T12:04:03.281Z,22.50
2022-12-16T12:05:03.096Z,20.30
2022-12-16T12:06:03.102Z,21.10
2022-12-16T12:07:03.077Z,22.60
2022-12-16T12:08:03.057Z,21.20
2022-12-16T12:09:03.051Z,23.20
2022-12-16T12:10:03.043Z,23.40
2022-12-16T12:11:03.017Z,23.60
2022-12-16T12:12:03.018Z,26.30
2022-12-16T12:13:03.080Z,21.60
2022-12-16T12:14:02.990Z,23.00
2022-12-16T12:15:02.997Z,22.40
2022-12-16T12:16:03.065Z,25.70
2022-12-16T12:17:02.937Z,25.00
2022-12-16T12:18:02.936Z,23.80
2022-12-16T12:19:03.599Z,23.30
2022-12-16T12:20:03.016Z,24.40
2022-12-16T12:21:02.909Z,25.00
2022-12-16T12:22:03.629Z,22.00
2022-12-16T12:23:02.888Z,22.90
2022-12-16T12:24:02.868Z,23.70
2022-12-16T12:25:02.838Z,23.40
2022-12-16T12:26:02.849Z,25.70
2022-12-16T12:27:02.828Z,24.20
2022-12-16T12:28:02.983Z,23.50
2022-12-16T12:29:03.014Z,22.90
2022-12-16T12:30:03.097Z,23.70
2022-12-16T12:31:02.897Z,23.30
2022-12-16T12:32:03.029Z,22.60
2022-12-16T12:33:02.738Z,23.30
2022-12-16T12:34:02.730Z,22.80
2022-12-16T12:35:02.731Z,22.20
2022-12-16T12:36:02.708Z,24.90
2022-12-16T12:37:10.196Z,24.20
2022-12-16T12:38:10.173Z,25.70
2022-12-16T12:40:18.958Z,25.30
2022-12-16T12:41:18.946Z,25.30
2022-12-16T12:42:26.434Z,23.90
2022-12-16T12:43:26.652Z,26.40
2022-12-16T12:44:18.900Z,27.00
2022-12-16T12:45:18.910Z,24.00
2022-12-16T12:46:27.632Z,25.40
2022-12-16T12:47:26.371Z,24.70
2022-12-16T12:48:18.851Z,25.20
2022-12-16T12:49:18.840Z,24.60
2022-12-16T12:50:18.830Z,27.30
2022-12-16T12:51:18.820Z,26.70
2022-12-16T12:52:18.794Z,25.70
2022-12-16T12:53:18.792Z,24.60
2022-12-16T12:54:18.770Z,28.00
2022-12-16T12:55:26.292Z,25.30
2022-12-16T12:56:18.766Z,24.50
2022-12-16T12:57:18.741Z,28.20
2022-12-16T12:58:18.738Z,25.40
2022-12-16T12:59:18.734Z,26.20
2022-12-16T13:00:18.708Z,25.20
2022-12-16T13:01:18.838Z,27.80
2022-12-16T13:02:18.887Z,27.90
2022-12-16T13:03:18.826Z,26.10
2022-12-16T13:04:18.669Z,26.60
2022-12-16T13:05:24.136Z,26.30
2022-12-16T13:06:19.660Z,27.10
2022-12-16T13:07:18.618Z,30.00
2022-12-16T13:08:18.609Z,26.50
2022-12-16T13:09:18.595Z,27.30
2022-12-16T13:10:18.591Z,27.30
2022-12-16T13:11:18.570Z,26.90
2022-12-16T13:12:18.578Z,28.40
2022-12-16T13:13:18.552Z,24.30
2022-12-16T13:14:18.519Z,27.30
2022-12-16T13:15:18.529Z,25.90
2022-12-16T13:16:18.552Z,25.00
2022-12-16T13:17:23.670Z,30.00
2022-12-16T13:18:19.489Z,27.60
2022-12-16T13:19:18.466Z,25.70
2022-12-16T13:20:18.472Z,29.50
2022-12-16T13:21:18.472Z,28.80
2022-12-16T13:22:18.529Z,24.70